Latest Weather Observations for Willis Island

IDQ60801

Issued at 10:13 am EST Thursday 23 September 2021 (issued every 10 minutes, with the page automatically refreshed every 10 minutes)

About weather observations | Map of weather stations | Latest weather observations for QLD | Other Formats
Station Details ID: 200283 Name: WILLIS ISLAND Lat: -16.29 Lon: 149.97 Height: 9.29 m
Data from the previous 72 hours. | See also: Recent months at Willis Island
Date/Time
EST
Temp
°C
App
Temp
°C
Dew
Point
°C
Rel
Hum
%
Delta-T
°C
Wind Press
QNH
hPa
Press
MSL
hPa
Rain since
9am
mm
Dir  Spd
km/h
Gust
km/h
Spd
kts
Gust
kts
23/10:00am 24.1 18.2 17.1 65 4.3 ESE 44 54 24 29 1018.4 1018.3 0.0
23/09:30am 24.3 17.9 16.8 63 4.6 ESE 46 54 25 29 1018.4 1018.3 0.0
23/09:00am 24.2 18.2 17.9 68 3.9 SE 46 56 25 30 1018.2 1018.1 0.0
23/08:36am 22.6 16.8 17.5 73 3.2 ESE 44 63 24 34 1018.3 1018.2 0.0
23/08:30am 22.2 15.2 17.3 74 3.0 ESE 50 63 27 34 1018.3 1018.2 0.0
23/08:00am 23.6 18.3 18.5 73 3.2 SE 44 57 24 31 1018.2 1018.1 0.0
23/07:43am 23.3 16.5 17.7 71 3.5 ESE 50 69 27 37 1017.8 1017.7 0.0
23/07:30am 23.8 18.0 17.3 67 4.0 SE 44 52 24 28 1017.7 1017.6 0.0
23/07:00am 23.5 17.7 17.3 68 3.8 ESE 44 56 24 30 1017.4 1017.3 0.0
23/06:30am 23.6 16.3 15.4 60 4.9 SE 48 56 26 30 1016.9 1016.8 0.0
23/06:00am 23.7 17.0 14.7 57 5.3 SE 43 50 23 27 1016.5 1016.4 0.0
23/05:30am 23.5 17.3 15.8 62 4.7 SE 43 48 23 26 1016.5 1016.4 0.0
23/05:00am 23.2 18.0 15.5 62 4.6 ESE 37 46 20 25 1016.4 1016.3 0.0
23/04:30am 22.9 16.1 14.2 58 5.1 SE 43 52 23 28 1016.3 1016.2 0.0
23/04:00am 23.1 14.9 14.1 57 5.3 SE 50 57 27 31 1016.3 1016.2 0.0
23/03:30am 23.0 15.5 15.1 61 4.7 SE 48 59 26 32 1016.1 1016.0 0.0
23/03:00am 23.1 16.6 15.2 61 4.7 SE 43 54 23 29 1016.2 1016.1 0.0
23/02:30am 22.8 17.5 16.4 67 3.9 SE 39 46 21 25 1016.3 1016.2 0.0
23/02:00am 22.9 16.5 15.5 63 4.4 SE 43 52 23 28 1016.5 1016.4 0.0
23/01:30am 22.5 15.7 14.4 60 4.8 SE 43 50 23 27 1017.1 1017.0 0.0
23/01:00am 21.9 14.9 13.8 60 4.7 SE 43 56 23 30 1017.6 1017.5 0.0
23/12:30am 21.7 14.5 13.6 60 4.7 SSE 44 57 24 31 1017.8 1017.7 0.0
23/12:07am 22.1 15.8 14.5 62 4.5 SSE 41 54 22 29 1017.9 1017.8 0.0
23/12:00am 22.1 15.4 14.5 62 4.5 SE 43 54 23 29 1017.9 1017.8 0.0
 
Date/Time
EST
Temp
°C
App
Temp
°C
Dew
Point
°C
Rel
Hum
%
Delta-T
°C
Wind Press
QNH
hPa
Press
MSL
hPa
Rain since
9am
mm
Dir  Spd
km/h
Gust
km/h
Spd
kts
Gust
kts
22/11:30pm 22.0 14.9 14.1 61 4.6 SE 44 54 24 29 1018.3 1018.2 0.0
22/11:00pm 21.6 15.0 13.8 61 4.5 SE 41 52 22 28 1018.3 1018.2 0.0
22/10:30pm 22.0 15.9 15.1 65 4.1 SE 41 50 22 27 1018.3 1018.2 0.0
22/10:00pm 21.7 15.2 15.1 66 3.9 SE 43 50 23 27 1018.2 1018.1 0.0
22/09:30pm 21.9 15.6 15.7 68 3.7 SE 43 52 23 28 1018.1 1018.0 0.0
22/09:00pm 21.7 15.3 15.5 68 3.7 SE 43 50 23 27 1018.2 1018.1 0.0
22/08:30pm 22.0 15.9 16.3 70 3.5 SE 43 52 23 28 1018.0 1017.9 0.0
22/08:00pm 22.1 15.3 15.9 68 3.7 SE 46 54 25 29 1017.9 1017.8 0.0
22/07:30pm 21.9 15.4 15.7 68 3.7 SE 44 52 24 28 1017.5 1017.4 0.0
22/07:00pm 21.9 15.4 15.7 68 3.7 SE 44 54 24 29 1017.1 1017.0 0.0
22/06:30pm 21.8 14.8 15.2 66 3.9 SE 46 57 25 31 1016.8 1016.7 0.0
22/06:00pm 22.2 15.8 16.0 68 3.7 SE 44 54 24 29 1016.4 1016.3 0.0
22/05:30pm 22.2 15.8 15.8 67 3.8 SE 44 54 24 29 1015.9 1015.8 0.0
22/05:00pm 22.5 15.6 15.6 65 4.1 SE 46 54 25 29 1015.8 1015.7 0.0
22/04:30pm 22.6 15.7 15.7 65 4.1 SE 46 57 25 31 1015.5 1015.4 0.0
22/04:00pm 23.1 16.1 16.4 66 4.1 SE 48 59 26 32 1015.4 1015.3 0.0
22/03:30pm 23.7 16.6 16.0 62 4.7 SE 48 57 26 31 1015.1 1015.0 0.0
22/03:00pm 23.6 16.4 15.9 62 4.7 SE 48 56 26 30 1015.1 1015.0 0.0
22/02:30pm 24.1 17.3 16.9 64 4.4 SE 48 56 26 30 1014.9 1014.8 0.0
22/02:00pm 24.3 17.3 16.3 61 4.9 SE 48 57 26 31 1015.1 1015.0 0.0
22/01:30pm 24.5 17.7 16.7 61 4.8 SE 48 57 26 31 1015.3 1015.2 0.0
22/01:00pm 24.4 17.3 16.9 63 4.6 SE 50 59 27 32 1015.4 1015.3 0.0
22/12:30pm 24.6 18.2 17.8 66 4.3 SE 48 57 26 31 1015.8 1015.7 0.0
22/12:00pm 24.2 17.1 17.0 64 4.4 SE 50 61 27 33 1016.0 1015.9 0.0
22/11:30am 24.4 16.8 16.6 61 4.8 SE 52 61 28 33 1016.4 1016.3 0.0
22/11:00am 24.7 17.5 17.7 65 4.4 SE 52 61 28 33 1016.5 1016.4 0.0
22/10:30am 24.5 17.5 18.2 68 4.0 SE 52 65 28 35 1016.6 1016.5 0.0
22/10:00am 24.8 17.1 17.3 63 4.7 SE 54 63 29 34 1016.6 1016.5 0.0
22/09:30am 24.3 16.6 17.5 66 4.2 SE 54 65 29 35 1016.4 1016.3 0.0
22/09:00am 24.5 17.0 18.7 70 3.7 SE 56 65 30 35 1016.4 1016.3 0.0
22/08:30am 23.7 15.8 17.9 70 3.6 SE 56 65 30 35 1016.2 1016.1 0.0
22/08:00am 24.9 18.5 17.9 65 4.4 SE 48 57 26 31 1015.8 1015.7 0.0
22/07:30am 24.7 17.8 17.4 64 4.5 SE 50 59 27 32 1015.4 1015.3 0.0
22/07:00am 24.8 18.1 18.0 66 4.3 ESE 50 59 27 32 1015.1 1015.0 0.0
22/06:30am 24.2 18.1 18.4 70 3.7 SE 48 56 26 30 1014.8 1014.7 0.0
22/06:00am 24.1 17.5 18.1 69 3.8 SE 50 57 27 31 1014.2 1014.1 0.0
22/05:30am 24.0 18.0 18.6 72 3.4 SE 48 57 26 31 1013.8 1013.7 0.0
22/05:00am 24.0 18.3 18.6 72 3.4 SE 46 56 25 30 1013.4 1013.3 0.0
22/04:30am 24.0 18.0 18.6 72 3.4 SE 48 56 26 30 1013.1 1013.0 0.0
22/04:00am 23.5 19.7 19.0 76 2.9 SE 37 46 20 25 1013.0 1012.9 0.0
22/03:30am 23.7 22.1 20.0 80 2.4 SE 28 32 15 17 1012.6 1012.5 0.0
22/03:00am 23.3 22.7 19.7 80 2.3 SE 22 26 12 14 1012.4 1012.3 0.0
22/02:30am 23.3 23.3 19.7 80 2.3 SE 19 22 10 12 1012.4 1012.3 0.0
22/02:00am 23.5 23.6 20.0 81 2.3 SE 19 22 10 12 1012.8 1012.7 0.0
22/01:30am 23.6 23.7 19.9 80 2.4 ESE 19 20 10 11 1013.0 1012.9 0.0
22/01:00am 23.5 23.4 19.6 79 2.5 SE 19 24 10 13 1013.4 1013.3 0.0
22/12:30am 23.4 23.3 19.5 79 2.5 SE 19 24 10 13 1013.8 1013.7 0.0
22/12:00am 23.5 23.8 19.6 79 2.5 SSE 17 20 9 11 1014.2 1014.1 0.0
 
Date/Time
EST
Temp
°C
App
Temp
°C
Dew
Point
°C
Rel
Hum
%
Delta-T
°C
Wind Press
QNH
hPa
Press
MSL
hPa
Rain since
9am
mm
Dir  Spd
km/h
Gust
km/h
Spd
kts
Gust
kts
21/11:30pm 23.8 24.1 19.7 78 2.6 SSE 17 20 9 11 1014.3 1014.2 0.0
21/11:00pm 23.5 24.4 19.2 77 2.7 SSE 13 17 7 9 1014.6 1014.5 0.0
21/10:30pm 23.8 24.8 19.5 77 2.8 SE 13 17 7 9 1014.7 1014.6 0.0
21/10:00pm 23.8 24.3 19.3 76 2.9 SSE 15 17 8 9 1014.7 1014.6 0.0
21/09:30pm 24.2 24.5 19.7 76 2.9 SSE 17 20 9 11 1014.7 1014.6 0.0
21/09:00pm 24.2 23.9 19.5 75 3.0 S 20 24 11 13 1014.6 1014.5 0.0
21/08:30pm 24.5 23.7 20.0 76 2.9 S 24 28 13 15 1014.5 1014.4 0.0
21/08:00pm 24.5 24.0 20.0 76 2.9 S 22 28 12 15 1014.2 1014.1 0.0
21/07:30pm 24.5 23.7 20.0 76 2.9 S 24 26 13 14 1013.9 1013.8 0.0
21/07:00pm 24.4 24.4 19.7 75 3.0 S 19 24 10 13 1013.5 1013.4 0.0
21/06:30pm 24.6 24.5 19.9 75 3.0 S 20 26 11 14 1013.2 1013.1 0.0
21/06:00pm 24.8 24.2 19.8 74 3.2 S 22 26 12 14 1013.0 1012.9 0.0
21/05:30pm 24.9 24.3 19.7 73 3.4 S 22 26 12 14 1012.8 1012.7 0.0
21/05:00pm 25.5 24.8 20.3 73 3.4 S 24 26 13 14 1012.5 1012.4 0.0
21/04:30pm 25.9 25.9 20.2 71 3.7 S 20 26 11 14 1012.4 1012.3 0.0
21/04:00pm 26.5 27.0 20.1 68 4.2 SSE 17 22 9 12 1012.2 1012.1 0.0
21/03:30pm 26.9 27.6 20.5 68 4.2 SSE 17 20 9 11 1012.3 1012.2 0.0
21/03:00pm 27.6 28.3 21.2 68 4.3 SSE 19 24 10 13 1012.1 1012.0 0.0
21/02:30pm 26.7 26.7 19.8 66 4.5 SSE 19 22 10 12 1012.2 1012.1 0.0
21/02:00pm 27.1 27.8 20.4 66 4.4 SSE 17 22 9 12 1012.5 1012.4 0.0
21/01:30pm 27.8 28.7 20.9 66 4.6 SSE 17 20 9 11 1012.8 1012.7 0.0
21/01:00pm 27.6 29.1 21.2 68 4.3 SE 15 20 8 11 1013.0 1012.9 0.0
21/12:30pm 27.8 29.1 21.6 69 4.1 SE 17 19 9 10 1013.3 1013.2 0.0
21/12:00pm 27.4 28.4 21.0 68 4.2 SE 17 20 9 11 1013.7 1013.6 0.0
21/11:30am 27.4 28.1 21.2 69 4.1 SE 19 24 10 13 1013.9 1013.8 0.0
21/11:00am 28.0 29.1 22.0 70 4.0 ESE 19 22 10 12 1014.3 1014.2 0.0
21/10:30am 27.4 28.2 21.7 71 3.8 ESE 20 26 11 14 1014.6 1014.5 0.0
21/10:00am 27.2 27.2 21.7 72 3.7 ESE 24 28 13 15 1014.8 1014.7 0.0
21/09:30am 27.3 27.7 22.5 75 3.2 ESE 24 28 13 15 1014.9 1014.8 0.0
21/09:00am 26.4 26.0 21.6 75 3.2 ESE 26 30 14 16 1015.1 1015.0 0.2
21/08:30am 26.3 26.3 22.4 79 2.6 ESE 26 32 14 17 1015.1 1015.0 0.2
21/08:00am 25.2 24.6 21.9 82 2.2 SE 28 32 15 17 1014.9 1014.8 0.2
21/07:30am 25.3 24.8 22.2 83 2.1 ESE 28 33 15 18 1014.6 1014.5 0.2
21/07:00am 24.7 24.1 22.0 85 1.8 ESE 28 33 15 18 1014.4 1014.3 0.2
21/06:30am 24.6 24.0 21.9 85 1.8 ESE 28 32 15 17 1014.1 1014.0 0.2
21/06:00am 24.1 22.4 21.4 85 1.8 ESE 32 35 17 19 1013.6 1013.5 0.2
21/05:30am 24.1 22.4 21.4 85 1.8 ESE 32 35 17 19 1013.5 1013.4 0.2
21/05:00am 24.3 22.7 21.6 85 1.8 SE 32 37 17 20 1013.2 1013.1 0.2
21/04:30am 24.2 23.0 21.5 85 1.8 ESE 30 35 16 19 1013.2 1013.1 0.2
21/04:00am 24.3 22.8 21.8 86 1.7 ESE 32 37 17 20 1013.2 1013.1 0.2
21/03:30am 24.1 22.5 21.6 86 1.7 ESE 32 37 17 20 1013.4 1013.3 0.2
21/03:00am 24.1 22.3 21.6 86 1.7 ESE 33 39 18 21 1013.5 1013.4 0.2
21/02:30am 24.1 22.3 21.6 86 1.7 ESE 33 37 18 20 1013.5 1013.4 0.2
21/02:00am 24.3 22.3 21.8 86 1.7 ESE 35 39 19 21 1013.6 1013.5 0.2
21/01:30am 24.5 23.0 21.8 85 1.8 SE 32 37 17 20 1014.0 1013.9 0.0
21/01:00am 24.4 22.7 21.7 85 1.8 ESE 33 37 18 20 1014.3 1014.2 0.0
21/12:30am 24.4 22.3 21.7 85 1.8 ESE 35 39 19 21 1014.6 1014.5 0.0
21/12:00am 24.3 22.3 21.8 86 1.7 SE 35 41 19 22 1014.9 1014.8 0.0
 
Date/Time
EST
Temp
°C
App
Temp
°C
Dew
Point
°C
Rel
Hum
%
Delta-T
°C
Wind Press
QNH
hPa
Press
MSL
hPa
Rain since
9am
mm
Dir  Spd
km/h
Gust
km/h
Spd
kts
Gust
kts
20/11:30pm 24.3 22.5 21.6 85 1.8 SE 33 39 18 21 1015.4 1015.3 0.0
20/11:00pm 24.5 23.0 22.0 86 1.7 SE 33 41 18 22 1015.6 1015.5 0.0
20/10:30pm 24.6 22.7 22.1 86 1.7 SE 35 43 19 23 1015.7 1015.6 0.0
20/10:00pm 24.4 22.4 21.9 86 1.7 SE 35 43 19 23 1015.8 1015.7 0.0
20/09:30pm 24.5 22.7 22.2 87 1.5 SE 35 41 19 22 1016.0 1015.9 0.0
20/09:00pm 24.5 23.1 22.2 87 1.5 SE 33 39 18 21 1016.0 1015.9 0.0
20/08:30pm 24.4 22.8 21.9 86 1.7 SE 33 39 18 21 1015.9 1015.8 0.0
20/08:00pm 24.3 22.8 22.0 87 1.5 SE 33 39 18 21 1015.5 1015.4 0.0
20/07:30pm 24.5 22.7 22.2 87 1.5 SE 35 41 19 22 1015.3 1015.2 0.0
20/07:00pm 24.2 22.1 21.7 86 1.7 SE 35 39 19 21 1015.0 1014.9 0.0
20/06:30pm 24.4 22.6 21.5 84 1.9 SE 33 39 18 21 1014.8 1014.7 0.0
20/06:00pm 24.8 23.4 21.9 84 1.9 SE 32 37 17 20 1014.5 1014.4 0.0
20/05:30pm 24.6 22.9 21.7 84 1.9 SE 33 39 18 21 1014.4 1014.3 0.0
20/05:00pm 24.3 22.7 21.6 85 1.8 SE 32 37 17 20 1014.2 1014.1 0.0
20/04:30pm 23.6 20.8 21.1 86 1.6 SE 37 43 20 23 1014.2 1014.1 0.0
20/04:00pm 24.7 22.3 21.0 80 2.4 SE 35 43 19 23 1014.2 1014.1 0.0
20/03:30pm 25.6 23.9 21.3 77 2.8 SE 32 37 17 20 1014.0 1013.9 0.0
20/03:00pm 26.0 24.9 21.7 77 2.9 SE 30 35 16 19 1013.9 1013.8 0.0
20/02:30pm 26.3 24.6 21.3 74 3.3 SE 32 37 17 20 1014.1 1014.0 0.0
20/02:00pm 27.1 25.8 21.4 71 3.8 SE 30 35 16 19 1014.4 1014.3 0.0
20/01:30pm 26.4 25.0 21.2 73 3.4 SE 30 35 16 19 1014.8 1014.7 0.0
20/01:00pm 26.9 25.9 21.2 71 3.8 SE 28 33 15 18 1015.2 1015.1 0.0
20/12:30pm 27.0 25.8 20.8 69 4.1 SE 28 35 15 19 1015.7 1015.6 0.0
20/12:00pm 27.3 26.0 21.3 69 4.0 SE 30 35 16 19 1016.1 1016.0 0.0
20/11:30am 27.1 25.7 21.2 70 3.9 SE 30 37 16 20 1016.4 1016.3 0.0
20/11:00am 26.3 24.3 20.8 71 3.6 SE 32 37 17 20 1016.8 1016.7 0.0
20/10:30am 26.2 24.4 21.2 74 3.3 SE 32 35 17 19 1017.0 1016.9 0.0

Other formats

Comma delimited format used in spreadsheet applications
http://www.bom.gov.au/fwo/IDQ60801/IDQ60801.94299.axf

JavaScript Object Notation format (JSON) in row-major order
http://www.bom.gov.au/fwo/IDQ60801/IDQ60801.94299.json

Data quality

Most of these data are generated automatically and are frequently updated. Quality checks on data are not normally performed. It is possible for incorrect values to appear. Refer to information at About Latest Weather Observations and please check the disclaimer before using these data.